sensor_id;sensor_type;location;lat;lon;timestamp;P1;durP1;ratioP1;P2;durP2;ratioP2
77038;SDS011;65970;50.476;4.840;2023-08-08T00:04:10;1.85;;;0.90;;
77038;SDS011;65970;50.476;4.840;2023-08-08T00:09:11;1.55;;;0.90;;
77038;SDS011;65970;50.476;4.840;2023-08-08T00:14:11;0.95;;;0.65;;
77038;SDS011;65970;50.476;4.840;2023-08-08T00:19:12;9.02;;;1.05;;
77038;SDS011;65970;50.476;4.840;2023-08-08T00:24:12;1.30;;;0.90;;
77038;SDS011;65970;50.476;4.840;2023-08-08T00:29:13;2.65;;;1.02;;
77038;SDS011;65970;50.476;4.840;2023-08-08T00:34:14;3.67;;;1.10;;
77038;SDS011;65970;50.476;4.840;2023-08-08T00:39:15;4.50;;;1.00;;
77038;SDS011;65970;50.476;4.840;2023-08-08T00:44:15;1.48;;;1.05;;
77038;SDS011;65970;50.476;4.840;2023-08-08T00:49:16;1.10;;;0.88;;
77038;SDS011;65970;50.476;4.840;2023-08-08T00:54:16;7.22;;;1.30;;
77038;SDS011;65970;50.476;4.840;2023-08-08T00:59:18;1.58;;;0.77;;
77038;SDS011;65970;50.476;4.840;2023-08-08T01:04:19;2.60;;;0.90;;
77038;SDS011;65970;50.476;4.840;2023-08-08T01:09:33;1.77;;;1.67;;
77038;SDS011;65970;50.476;4.840;2023-08-08T01:14:38;1.60;;;1.00;;
77038;SDS011;65970;50.476;4.840;2023-08-08T01:24:43;2.85;;;0.80;;
77038;SDS011;65970;50.476;4.840;2023-08-08T01:29:44;3.30;;;0.82;;
77038;SDS011;65970;50.476;4.840;2023-08-08T01:34:44;2.67;;;1.05;;
77038;SDS011;65970;50.476;4.840;2023-08-08T01:39:45;1.80;;;1.15;;
77038;SDS011;65970;50.476;4.840;2023-08-08T01:44:46;1.55;;;1.00;;
77038;SDS011;65970;50.476;4.840;2023-08-08T01:49:48;1.92;;;0.85;;
77038;SDS011;65970;50.476;4.840;2023-08-08T01:54:49;2.42;;;1.02;;
77038;SDS011;65970;50.476;4.840;2023-08-08T01:59:50;2.00;;;0.82;;
77038;SDS011;65970;50.476;4.840;2023-08-08T02:04:50;1.08;;;0.80;;
77038;SDS011;65970;50.476;4.840;2023-08-08T02:09:51;2.55;;;1.05;;
77038;SDS011;65970;50.476;4.840;2023-08-08T02:14:51;1.75;;;0.80;;
77038;SDS011;65970;50.476;4.840;2023-08-08T02:19:52;2.05;;;1.00;;
77038;SDS011;65970;50.476;4.840;2023-08-08T02:24:53;2.25;;;1.30;;
77038;SDS011;65970;50.476;4.840;2023-08-08T02:29:53;3.17;;;0.98;;
77038;SDS011;65970;50.476;4.840;2023-08-08T02:34:54;3.47;;;1.05;;
77038;SDS011;65970;50.476;4.840;2023-08-08T02:39:54;3.63;;;1.08;;
77038;SDS011;65970;50.476;4.840;2023-08-08T02:44:55;3.10;;;1.00;;
77038;SDS011;65970;50.476;4.840;2023-08-08T02:49:55;3.80;;;0.90;;
77038;SDS011;65970;50.476;4.840;2023-08-08T02:54:56;3.60;;;0.82;;
77038;SDS011;65970;50.476;4.840;2023-08-08T02:59:56;0.95;;;0.60;;
77038;SDS011;65970;50.476;4.840;2023-08-08T03:04:57;2.35;;;0.90;;
77038;SDS011;65970;50.476;4.840;2023-08-08T03:09:57;5.18;;;1.08;;
77038;SDS011;65970;50.476;4.840;2023-08-08T03:14:58;4.22;;;1.05;;
77038;SDS011;65970;50.476;4.840;2023-08-08T03:19:58;3.30;;;1.48;;
77038;SDS011;65970;50.476;4.840;2023-08-08T03:24:59;2.67;;;1.35;;
77038;SDS011;65970;50.476;4.840;2023-08-08T03:30:00;3.55;;;1.17;;
77038;SDS011;65970;50.476;4.840;2023-08-08T03:35:00;3.85;;;1.23;;
77038;SDS011;65970;50.476;4.840;2023-08-08T03:40:01;2.13;;;1.35;;
77038;SDS011;65970;50.476;4.840;2023-08-08T03:45:02;4.82;;;1.52;;
77038;SDS011;65970;50.476;4.840;2023-08-08T03:50:03;3.88;;;1.73;;
77038;SDS011;65970;50.476;4.840;2023-08-08T03:55:05;3.95;;;1.27;;
77038;SDS011;65970;50.476;4.840;2023-08-08T04:00:05;4.75;;;1.17;;
77038;SDS011;65970;50.476;4.840;2023-08-08T04:05:06;3.17;;;1.48;;
77038;SDS011;65970;50.476;4.840;2023-08-08T04:10:07;2.28;;;1.27;;
77038;SDS011;65970;50.476;4.840;2023-08-08T04:15:08;3.53;;;1.17;;
77038;SDS011;65970;50.476;4.840;2023-08-08T04:20:09;1.77;;;1.17;;
77038;SDS011;65970;50.476;4.840;2023-08-08T04:25:10;7.63;;;1.50;;
77038;SDS011;65970;50.476;4.840;2023-08-08T04:30:10;1.20;;;0.90;;
77038;SDS011;65970;50.476;4.840;2023-08-08T04:35:11;7.10;;;1.13;;
77038;SDS011;65970;50.476;4.840;2023-08-08T04:40:12;3.08;;;1.35;;
77038;SDS011;65970;50.476;4.840;2023-08-08T04:45:12;2.92;;;1.20;;
77038;SDS011;65970;50.476;4.840;2023-08-08T04:50:13;4.05;;;1.15;;
77038;SDS011;65970;50.476;4.840;2023-08-08T04:55:13;4.72;;;1.17;;
77038;SDS011;65970;50.476;4.840;2023-08-08T05:00:14;3.50;;;1.15;;
77038;SDS011;65970;50.476;4.840;2023-08-08T05:05:15;4.32;;;1.30;;
77038;SDS011;65970;50.476;4.840;2023-08-08T05:10:15;6.80;;;1.38;;
77038;SDS011;65970;50.476;4.840;2023-08-08T05:15:16;2.92;;;1.13;;
77038;SDS011;65970;50.476;4.840;2023-08-08T05:20:16;3.05;;;1.15;;
77038;SDS011;65970;50.476;4.840;2023-08-08T05:25:17;1.95;;;1.05;;
77038;SDS011;65970;50.476;4.840;2023-08-08T05:30:18;5.75;;;1.90;;
77038;SDS011;65970;50.476;4.840;2023-08-08T05:35:19;3.15;;;1.20;;
77038;SDS011;65970;50.476;4.840;2023-08-08T05:40:19;4.45;;;0.90;;
77038;SDS011;65970;50.476;4.840;2023-08-08T05:45:20;3.63;;;1.00;;
77038;SDS011;65970;50.476;4.840;2023-08-08T05:50:20;6.53;;;1.27;;
77038;SDS011;65970;50.476;4.840;2023-08-08T05:55:21;6.13;;;1.20;;
77038;SDS011;65970;50.476;4.840;2023-08-08T06:00:21;3.80;;;1.38;;
77038;SDS011;65970;50.476;4.840;2023-08-08T06:05:22;3.35;;;1.35;;
77038;SDS011;65970;50.476;4.840;2023-08-08T06:10:23;5.13;;;1.00;;
77038;SDS011;65970;50.476;4.840;2023-08-08T06:15:23;2.92;;;1.50;;
77038;SDS011;65970;50.476;4.840;2023-08-08T06:20:24;4.22;;;1.10;;
77038;SDS011;65970;50.476;4.840;2023-08-08T06:25:24;2.85;;;1.25;;
77038;SDS011;65970;50.476;4.840;2023-08-08T06:30:25;8.13;;;1.48;;
77038;SDS011;65970;50.476;4.840;2023-08-08T06:35:25;6.03;;;1.73;;
77038;SDS011;65970;50.476;4.840;2023-08-08T06:40:26;3.97;;;1.55;;
77038;SDS011;65970;50.476;4.840;2023-08-08T06:45:27;5.82;;;1.38;;
77038;SDS011;65970;50.476;4.840;2023-08-08T06:50:27;3.88;;;1.10;;
77038;SDS011;65970;50.476;4.840;2023-08-08T06:55:28;4.55;;;1.65;;
77038;SDS011;65970;50.476;4.840;2023-08-08T07:00:28;4.22;;;1.60;;
77038;SDS011;65970;50.476;4.840;2023-08-08T07:05:29;7.65;;;2.40;;
77038;SDS011;65970;50.476;4.840;2023-08-08T07:10:29;4.28;;;1.60;;
77038;SDS011;65970;50.476;4.840;2023-08-08T07:15:30;7.75;;;1.98;;
77038;SDS011;65970;50.476;4.840;2023-08-08T07:20:30;2.70;;;1.35;;
77038;SDS011;65970;50.476;4.840;2023-08-08T07:25:31;6.38;;;1.52;;
77038;SDS011;65970;50.476;4.840;2023-08-08T07:30:32;6.00;;;2.00;;
77038;SDS011;65970;50.476;4.840;2023-08-08T07:35:32;5.18;;;1.85;;
77038;SDS011;65970;50.476;4.840;2023-08-08T07:40:33;2.97;;;1.73;;
77038;SDS011;65970;50.476;4.840;2023-08-08T07:45:34;2.25;;;0.98;;
77038;SDS011;65970;50.476;4.840;2023-08-08T07:50:34;5.78;;;1.17;;
77038;SDS011;65970;50.476;4.840;2023-08-08T07:55:35;9.65;;;2.13;;
77038;SDS011;65970;50.476;4.840;2023-08-08T08:00:35;4.07;;;1.20;;
77038;SDS011;65970;50.476;4.840;2023-08-08T08:05:36;5.32;;;1.08;;
77038;SDS011;65970;50.476;4.840;2023-08-08T08:10:36;6.35;;;1.55;;
77038;SDS011;65970;50.476;4.840;2023-08-08T08:15:37;4.50;;;1.02;;
77038;SDS011;65970;50.476;4.840;2023-08-08T08:20:38;1.65;;;1.13;;
77038;SDS011;65970;50.476;4.840;2023-08-08T08:25:38;4.53;;;1.00;;
77038;SDS011;65970;50.476;4.840;2023-08-08T08:30:39;3.38;;;1.23;;
77038;SDS011;65970;50.476;4.840;2023-08-08T08:35:39;1.92;;;1.20;;
77038;SDS011;65970;50.476;4.840;2023-08-08T08:40:40;4.22;;;1.40;;
77038;SDS011;65970;50.476;4.840;2023-08-08T08:45:42;7.70;;;1.58;;
77038;SDS011;65970;50.476;4.840;2023-08-08T08:50:45;6.77;;;1.30;;
77038;SDS011;65970;50.476;4.840;2023-08-08T09:00:48;3.45;;;0.85;;
77038;SDS011;65970;50.476;4.840;2023-08-08T09:05:49;4.15;;;1.15;;
77038;SDS011;65970;50.476;4.840;2023-08-08T09:10:52;3.15;;;1.35;;
77038;SDS011;65970;50.476;4.840;2023-08-08T09:15:52;7.75;;;3.05;;
77038;SDS011;65970;50.476;4.840;2023-08-08T09:20:53;7.40;;;3.33;;
77038;SDS011;65970;50.476;4.840;2023-08-08T09:25:54;4.97;;;1.50;;
77038;SDS011;65970;50.476;4.840;2023-08-08T09:30:54;13.02;;;4.25;;
77038;SDS011;65970;50.476;4.840;2023-08-08T09:35:55;10.75;;;4.97;;
77038;SDS011;65970;50.476;4.840;2023-08-08T09:40:56;9.40;;;3.78;;
77038;SDS011;65970;50.476;4.840;2023-08-08T09:45:56;4.25;;;2.22;;
77038;SDS011;65970;50.476;4.840;2023-08-08T09:50:58;3.13;;;1.90;;
77038;SDS011;65970;50.476;4.840;2023-08-08T09:55:58;5.05;;;2.47;;
77038;SDS011;65970;50.476;4.840;2023-08-08T10:01:03;4.63;;;2.13;;
77038;SDS011;65970;50.476;4.840;2023-08-08T10:06:04;2.92;;;2.03;;
77038;SDS011;65970;50.476;4.840;2023-08-08T10:11:05;4.05;;;2.30;;
77038;SDS011;65970;50.476;4.840;2023-08-08T10:16:07;6.07;;;3.00;;
77038;SDS011;65970;50.476;4.840;2023-08-08T10:21:08;8.52;;;2.30;;
77038;SDS011;65970;50.476;4.840;2023-08-08T10:26:18;4.95;;;1.55;;
77038;SDS011;65970;50.476;4.840;2023-08-08T10:31:20;8.07;;;1.65;;
77038;SDS011;65970;50.476;4.840;2023-08-08T10:36:20;3.85;;;2.20;;
77038;SDS011;65970;50.476;4.840;2023-08-08T10:41:22;5.28;;;2.58;;
77038;SDS011;65970;50.476;4.840;2023-08-08T10:46:28;8.23;;;2.85;;
77038;SDS011;65970;50.476;4.840;2023-08-08T10:56:47;2.70;;;0.93;;
77038;SDS011;65970;50.476;4.840;2023-08-08T11:01:51;2.42;;;1.13;;
77038;SDS011;65970;50.476;4.840;2023-08-08T11:06:53;3.80;;;1.00;;
77038;SDS011;65970;50.476;4.840;2023-08-08T11:11:54;5.07;;;1.63;;
77038;SDS011;65970;50.476;4.840;2023-08-08T11:16:54;3.30;;;1.30;;
77038;SDS011;65970;50.476;4.840;2023-08-08T11:21:55;6.18;;;1.25;;
77038;SDS011;65970;50.476;4.840;2023-08-08T11:26:58;2.30;;;1.42;;
77038;SDS011;65970;50.476;4.840;2023-08-08T11:32:02;2.95;;;1.17;;
77038;SDS011;65970;50.476;4.840;2023-08-08T11:37:03;4.85;;;1.50;;
77038;SDS011;65970;50.476;4.840;2023-08-08T11:42:04;3.78;;;1.48;;
77038;SDS011;65970;50.476;4.840;2023-08-08T11:47:05;2.17;;;1.38;;
77038;SDS011;65970;50.476;4.840;2023-08-08T11:52:07;5.32;;;2.08;;
77038;SDS011;65970;50.476;4.840;2023-08-08T11:57:08;3.08;;;1.23;;
77038;SDS011;65970;50.476;4.840;2023-08-08T12:02:09;4.78;;;1.13;;
77038;SDS011;65970;50.476;4.840;2023-08-08T12:07:10;1.60;;;1.00;;
77038;SDS011;65970;50.476;4.840;2023-08-08T12:12:11;1.70;;;0.70;;
77038;SDS011;65970;50.476;4.840;2023-08-08T12:17:13;1.25;;;0.70;;
77038;SDS011;65970;50.476;4.840;2023-08-08T12:22:14;5.80;;;1.30;;
77038;SDS011;65970;50.476;4.840;2023-08-08T12:27:14;2.22;;;0.90;;
77038;SDS011;65970;50.476;4.840;2023-08-08T12:32:15;2.88;;;0.98;;
77038;SDS011;65970;50.476;4.840;2023-08-08T12:37:16;2.85;;;0.85;;
77038;SDS011;65970;50.476;4.840;2023-08-08T12:42:16;1.38;;;1.05;;
77038;SDS011;65970;50.476;4.840;2023-08-08T12:47:18;3.38;;;1.00;;
77038;SDS011;65970;50.476;4.840;2023-08-08T12:52:19;2.05;;;1.23;;
77038;SDS011;65970;50.476;4.840;2023-08-08T12:57:19;1.58;;;1.02;;
77038;SDS011;65970;50.476;4.840;2023-08-08T13:02:20;4.03;;;0.68;;
77038;SDS011;65970;50.476;4.840;2023-08-08T13:07:20;1.75;;;0.75;;
77038;SDS011;65970;50.476;4.840;2023-08-08T13:12:21;3.50;;;1.20;;
77038;SDS011;65970;50.476;4.840;2023-08-08T13:17:22;2.40;;;1.25;;
77038;SDS011;65970;50.476;4.840;2023-08-08T13:22:22;5.18;;;1.73;;
77038;SDS011;65970;50.476;4.840;2023-08-08T13:27:23;2.80;;;1.55;;
77038;SDS011;65970;50.476;4.840;2023-08-08T13:32:23;3.28;;;1.38;;
77038;SDS011;65970;50.476;4.840;2023-08-08T13:37:24;2.55;;;1.00;;
77038;SDS011;65970;50.476;4.840;2023-08-08T13:42:25;2.88;;;1.10;;
77038;SDS011;65970;50.476;4.840;2023-08-08T13:47:25;1.13;;;0.70;;
77038;SDS011;65970;50.476;4.840;2023-08-08T13:52:26;3.45;;;1.70;;
77038;SDS011;65970;50.476;4.840;2023-08-08T13:57:26;2.50;;;0.73;;
77038;SDS011;65970;50.476;4.840;2023-08-08T14:02:27;1.70;;;1.00;;
77038;SDS011;65970;50.476;4.840;2023-08-08T14:07:27;1.98;;;1.02;;
77038;SDS011;65970;50.476;4.840;2023-08-08T14:12:28;2.45;;;1.15;;
77038;SDS011;65970;50.476;4.840;2023-08-08T14:17:28;3.75;;;1.08;;
77038;SDS011;65970;50.476;4.840;2023-08-08T14:22:29;4.05;;;0.80;;
77038;SDS011;65970;50.476;4.840;2023-08-08T14:27:29;3.00;;;1.77;;
77038;SDS011;65970;50.476;4.840;2023-08-08T14:32:30;1.25;;;0.77;;
77038;SDS011;65970;50.476;4.840;2023-08-08T14:37:31;0.52;;;0.52;;
77038;SDS011;65970;50.476;4.840;2023-08-08T14:42:32;3.05;;;0.70;;
77038;SDS011;65970;50.476;4.840;2023-08-08T14:47:32;2.33;;;0.70;;
77038;SDS011;65970;50.476;4.840;2023-08-08T14:52:33;0.38;;;0.38;;
77038;SDS011;65970;50.476;4.840;2023-08-08T14:57:33;0.80;;;0.35;;
77038;SDS011;65970;50.476;4.840;2023-08-08T15:02:34;2.00;;;0.70;;
77038;SDS011;65970;50.476;4.840;2023-08-08T15:07:35;1.10;;;0.65;;
77038;SDS011;65970;50.476;4.840;2023-08-08T15:12:35;1.55;;;0.68;;
77038;SDS011;65970;50.476;4.840;2023-08-08T15:17:36;0.70;;;0.45;;
77038;SDS011;65970;50.476;4.840;2023-08-08T15:22:36;2.55;;;1.13;;
77038;SDS011;65970;50.476;4.840;2023-08-08T15:27:37;3.15;;;0.80;;
77038;SDS011;65970;50.476;4.840;2023-08-08T15:32:38;1.17;;;0.70;;
77038;SDS011;65970;50.476;4.840;2023-08-08T15:37:38;1.35;;;0.73;;
77038;SDS011;65970;50.476;4.840;2023-08-08T15:42:39;2.20;;;0.70;;
77038;SDS011;65970;50.476;4.840;2023-08-08T15:47:39;0.82;;;0.68;;
77038;SDS011;65970;50.476;4.840;2023-08-08T15:52:40;3.65;;;0.70;;
77038;SDS011;65970;50.476;4.840;2023-08-08T15:57:41;2.22;;;1.02;;
77038;SDS011;65970;50.476;4.840;2023-08-08T16:02:41;1.15;;;0.65;;
77038;SDS011;65970;50.476;4.840;2023-08-08T16:07:42;0.43;;;0.43;;
77038;SDS011;65970;50.476;4.840;2023-08-08T16:12:42;1.10;;;0.77;;
77038;SDS011;65970;50.476;4.840;2023-08-08T16:17:43;1.02;;;0.60;;
77038;SDS011;65970;50.476;4.840;2023-08-08T16:22:44;1.63;;;0.65;;
77038;SDS011;65970;50.476;4.840;2023-08-08T16:27:44;0.85;;;0.63;;
77038;SDS011;65970;50.476;4.840;2023-08-08T16:32:45;1.23;;;0.60;;
77038;SDS011;65970;50.476;4.840;2023-08-08T16:37:45;1.45;;;0.80;;
77038;SDS011;65970;50.476;4.840;2023-08-08T16:42:46;0.73;;;0.73;;
77038;SDS011;65970;50.476;4.840;2023-08-08T16:47:47;1.65;;;0.65;;
77038;SDS011;65970;50.476;4.840;2023-08-08T16:52:47;1.73;;;0.55;;
77038;SDS011;65970;50.476;4.840;2023-08-08T16:57:48;1.83;;;1.13;;
77038;SDS011;65970;50.476;4.840;2023-08-08T17:02:49;2.45;;;1.15;;
77038;SDS011;65970;50.476;4.840;2023-08-08T17:07:49;1.77;;;1.10;;
77038;SDS011;65970;50.476;4.840;2023-08-08T17:12:50;1.02;;;0.60;;
77038;SDS011;65970;50.476;4.840;2023-08-08T17:17:51;1.35;;;0.47;;
77038;SDS011;65970;50.476;4.840;2023-08-08T17:22:51;2.08;;;0.80;;
77038;SDS011;65970;50.476;4.840;2023-08-08T17:27:52;1.02;;;0.77;;
77038;SDS011;65970;50.476;4.840;2023-08-08T17:32:52;2.67;;;0.68;;
77038;SDS011;65970;50.476;4.840;2023-08-08T17:37:53;1.40;;;0.85;;
77038;SDS011;65970;50.476;4.840;2023-08-08T17:42:54;1.13;;;0.60;;
77038;SDS011;65970;50.476;4.840;2023-08-08T17:47:54;1.30;;;0.90;;
77038;SDS011;65970;50.476;4.840;2023-08-08T17:52:55;0.90;;;0.63;;
77038;SDS011;65970;50.476;4.840;2023-08-08T17:57:55;1.75;;;1.00;;
77038;SDS011;65970;50.476;4.840;2023-08-08T18:02:56;1.63;;;0.88;;
77038;SDS011;65970;50.476;4.840;2023-08-08T18:07:57;2.25;;;1.00;;
77038;SDS011;65970;50.476;4.840;2023-08-08T18:12:57;2.45;;;0.90;;
77038;SDS011;65970;50.476;4.840;2023-08-08T18:17:58;3.47;;;1.45;;
77038;SDS011;65970;50.476;4.840;2023-08-08T18:22:58;1.77;;;1.13;;
77038;SDS011;65970;50.476;4.840;2023-08-08T18:27:59;3.65;;;1.58;;
77038;SDS011;65970;50.476;4.840;2023-08-08T18:33:00;1.45;;;1.15;;
77038;SDS011;65970;50.476;4.840;2023-08-08T18:38:00;1.65;;;1.10;;
77038;SDS011;65970;50.476;4.840;2023-08-08T18:43:01;1.17;;;1.02;;
77038;SDS011;65970;50.476;4.840;2023-08-08T18:48:01;1.80;;;0.90;;
77038;SDS011;65970;50.476;4.840;2023-08-08T18:53:02;3.75;;;1.13;;
77038;SDS011;65970;50.476;4.840;2023-08-08T18:58:03;1.83;;;1.27;;
77038;SDS011;65970;50.476;4.840;2023-08-08T19:03:03;1.48;;;1.23;;
77038;SDS011;65970;50.476;4.840;2023-08-08T19:08:04;4.57;;;0.90;;
77038;SDS011;65970;50.476;4.840;2023-08-08T19:13:05;1.70;;;1.05;;
77038;SDS011;65970;50.476;4.840;2023-08-08T19:18:05;1.85;;;1.15;;
77038;SDS011;65970;50.476;4.840;2023-08-08T19:23:06;1.58;;;0.93;;
77038;SDS011;65970;50.476;4.840;2023-08-08T19:28:06;2.20;;;0.90;;
77038;SDS011;65970;50.476;4.840;2023-08-08T19:33:07;1.48;;;1.35;;
77038;SDS011;65970;50.476;4.840;2023-08-08T19:38:08;1.63;;;1.00;;
77038;SDS011;65970;50.476;4.840;2023-08-08T19:43:08;0.95;;;0.82;;
77038;SDS011;65970;50.476;4.840;2023-08-08T19:48:09;2.55;;;0.75;;
77038;SDS011;65970;50.476;4.840;2023-08-08T19:53:09;1.77;;;0.77;;
77038;SDS011;65970;50.476;4.840;2023-08-08T19:58:10;1.30;;;1.20;;
77038;SDS011;65970;50.476;4.840;2023-08-08T20:03:11;1.15;;;0.80;;
77038;SDS011;65970;50.476;4.840;2023-08-08T20:08:11;2.63;;;0.82;;
77038;SDS011;65970;50.476;4.840;2023-08-08T20:13:12;0.90;;;0.90;;
77038;SDS011;65970;50.476;4.840;2023-08-08T20:18:12;2.33;;;1.45;;
77038;SDS011;65970;50.476;4.840;2023-08-08T20:23:13;1.85;;;1.00;;
77038;SDS011;65970;50.476;4.840;2023-08-08T20:28:14;1.92;;;1.35;;
77038;SDS011;65970;50.476;4.840;2023-08-08T20:33:14;1.85;;;1.65;;
77038;SDS011;65970;50.476;4.840;2023-08-08T20:38:15;2.08;;;1.15;;
77038;SDS011;65970;50.476;4.840;2023-08-08T20:43:15;2.50;;;1.23;;
77038;SDS011;65970;50.476;4.840;2023-08-08T20:48:16;1.38;;;1.00;;
77038;SDS011;65970;50.476;4.840;2023-08-08T20:53:17;0.88;;;0.80;;
77038;SDS011;65970;50.476;4.840;2023-08-08T20:58:17;1.33;;;1.23;;
77038;SDS011;65970;50.476;4.840;2023-08-08T21:03:18;2.67;;;1.60;;
77038;SDS011;65970;50.476;4.840;2023-08-08T21:08:18;1.40;;;1.27;;
77038;SDS011;65970;50.476;4.840;2023-08-08T21:13:19;3.10;;;1.67;;
77038;SDS011;65970;50.476;4.840;2023-08-08T21:18:19;3.67;;;1.42;;
77038;SDS011;65970;50.476;4.840;2023-08-08T21:23:20;3.22;;;1.77;;
77038;SDS011;65970;50.476;4.840;2023-08-08T21:28:21;3.13;;;1.58;;
77038;SDS011;65970;50.476;4.840;2023-08-08T21:33:21;3.05;;;1.60;;
77038;SDS011;65970;50.476;4.840;2023-08-08T21:38:22;4.60;;;1.40;;
77038;SDS011;65970;50.476;4.840;2023-08-08T21:43:22;3.05;;;1.38;;
77038;SDS011;65970;50.476;4.840;2023-08-08T21:48:23;3.85;;;1.85;;
77038;SDS011;65970;50.476;4.840;2023-08-08T21:53:23;4.25;;;0.90;;
77038;SDS011;65970;50.476;4.840;2023-08-08T21:58:24;2.75;;;1.20;;
77038;SDS011;65970;50.476;4.840;2023-08-08T22:03:25;2.30;;;1.60;;
77038;SDS011;65970;50.476;4.840;2023-08-08T22:08:26;3.95;;;1.15;;
77038;SDS011;65970;50.476;4.840;2023-08-08T22:13:26;2.97;;;1.08;;
77038;SDS011;65970;50.476;4.840;2023-08-08T22:18:27;1.85;;;1.30;;
77038;SDS011;65970;50.476;4.840;2023-08-08T22:23:27;1.70;;;1.10;;
77038;SDS011;65970;50.476;4.840;2023-08-08T22:28:28;2.88;;;1.23;;
77038;SDS011;65970;50.476;4.840;2023-08-08T22:33:28;4.90;;;1.17;;
77038;SDS011;65970;50.476;4.840;2023-08-08T22:38:29;4.15;;;1.30;;
77038;SDS011;65970;50.476;4.840;2023-08-08T22:43:30;4.03;;;1.95;;
77038;SDS011;65970;50.476;4.840;2023-08-08T22:48:30;5.35;;;1.48;;
77038;SDS011;65970;50.476;4.840;2023-08-08T22:53:31;4.93;;;2.00;;
77038;SDS011;65970;50.476;4.840;2023-08-08T22:58:31;3.33;;;1.25;;
77038;SDS011;65970;50.476;4.840;2023-08-08T23:03:32;2.15;;;1.17;;
77038;SDS011;65970;50.476;4.840;2023-08-08T23:08:32;1.98;;;1.00;;
77038;SDS011;65970;50.476;4.840;2023-08-08T23:13:33;3.05;;;1.50;;
77038;SDS011;65970;50.476;4.840;2023-08-08T23:18:34;1.92;;;0.82;;
77038;SDS011;65970;50.476;4.840;2023-08-08T23:23:34;3.20;;;1.00;;
77038;SDS011;65970;50.476;4.840;2023-08-08T23:28:35;2.92;;;1.48;;
77038;SDS011;65970;50.476;4.840;2023-08-08T23:33:35;2.10;;;1.27;;
77038;SDS011;65970;50.476;4.840;2023-08-08T23:38:36;5.28;;;1.02;;
77038;SDS011;65970;50.476;4.840;2023-08-08T23:43:36;1.33;;;1.00;;
77038;SDS011;65970;50.476;4.840;2023-08-08T23:48:37;3.22;;;1.23;;
77038;SDS011;65970;50.476;4.840;2023-08-08T23:53:38;3.40;;;0.82;;
77038;SDS011;65970;50.476;4.840;2023-08-08T23:58:38;1.13;;;0.77;;
